Aérodrome :
LOGIN :

S'inscrire | Disclaimer

   EN    FR    IT 

 










Légende :    VFR   VFR Marginal   IFR   IFR Intensif   IFR Très Intensif
Visi : 
Plafond : 
>= 8 km
>= 3000ft
5 à 8 km
1000 à 3000 ft
1500m à 5 km
500 à 1000 ft
800 à 1500m
200 à 500 ft
< 800m
< 200 ft
Symboles :   Orages  Brouillard  Fortes neiges  Fortes précipitations  Vent > 20 kt
SIGMETs :   Divers  Orages  Givrage  Turbulence  Onde Orograph.  Cendres Volcan.







- Altitude de l'aérodrome : 863 ft
- Code IATA : ZAZ


LEZG - Zaragoza Aragon

DERNIER METAR :
  • 101300Z 29019KT 9999 FEW050 12/05 Q1028

METARs EXPIRÉS :
  • 101230Z 29019KT 9999 FEW050 12/05 Q1029
  • 101200Z 29023KT 9999 FEW050 12/05 Q1029
  • 101130Z 29023KT 9999 FEW050 12/05 Q1029
  • 101100Z 29022KT 9999 FEW050 12/05 Q1030
  • 101030Z 29019KT 9999 FEW050 12/05 Q1031
  • 101000Z 29019KT 9999 FEW050 12/05 Q1031

TAF TAF LEZG
Valide du 10 à 12h jusqu'au 11 à 12h UTC


101100Z 1012/1112 27015KT 9999 FEW050 TX14/1014Z TN02/1106Z
TEMPO 1012/1015 30015G25KT
BECMG 1020/1022 27005KT
TEMPO 1106/1112 09006KT
Pas de NOTAMs connus pour ce terrain.



MET'MAP, la Météo Aéronautique d'un coup d'oeil ! - Copyright ORBIFLY Décembre 2007 - Disclaimer

ORBIFLY MET'MAP TEAM :

Programmation & Développement : Alexandra Zaïnal
Conception & Développement : Baudouin d'Aumeries
Co-Programmation & Développement : Marc-Olivier Méhu
Soutien technique & logistique : Manuel Goepfert

Contact : metmap@orbifly.com




SOURCES & CREDITS :

   NOAA